createdAt,value
2023-05-09T00:00:56.873Z,16.74
2023-05-09T00:03:23.212Z,16.69
2023-05-09T00:05:49.566Z,16.65
2023-05-09T00:08:15.903Z,16.64
2023-05-09T00:10:42.854Z,16.38
2023-05-09T00:13:09.298Z,16.02
2023-05-09T00:15:35.738Z,16.13
2023-05-09T00:18:02.130Z,16.14
2023-05-09T00:20:28.446Z,16.20
2023-05-09T00:22:55.253Z,16.34
2023-05-09T00:25:21.564Z,16.35
2023-05-09T00:27:47.874Z,16.47
2023-05-09T00:30:14.192Z,16.59
2023-05-09T00:32:41.385Z,16.38
2023-05-09T00:35:08.449Z,16.16
2023-05-09T00:37:34.734Z,15.91
2023-05-09T00:40:01.074Z,15.90
2023-05-09T00:42:27.389Z,15.86
2023-05-09T00:44:53.695Z,15.79
2023-05-09T00:47:20.675Z,15.75
2023-05-09T00:49:46.961Z,15.67
2023-05-09T00:52:13.252Z,15.62
2023-05-09T00:54:39.633Z,15.62
2023-05-09T00:57:05.990Z,15.71
2023-05-09T00:59:32.298Z,15.79
2023-05-09T01:01:58.613Z,15.52
2023-05-09T01:04:24.948Z,15.59
2023-05-09T01:06:57.404Z,15.57
2023-05-09T01:09:39.125Z,15.58
2023-05-09T01:12:08.156Z,15.63
2023-05-09T01:14:44.253Z,15.61
2023-05-09T01:17:12.168Z,15.75
2023-05-09T01:19:47.573Z,15.90
2023-05-09T01:22:14.079Z,16.07
2023-05-09T01:25:05.108Z,16.22
2023-05-09T01:27:33.294Z,16.30
2023-05-09T01:29:59.734Z,16.38
2023-05-09T01:32:27.137Z,16.57
2023-05-09T01:34:54.507Z,16.62
2023-05-09T01:37:22.353Z,16.60
2023-05-09T01:39:51.678Z,16.60
2023-05-09T01:42:18.699Z,16.75
2023-05-09T01:44:44.975Z,16.70
2023-05-09T01:47:11.250Z,16.69
2023-05-09T01:49:37.735Z,16.66
2023-05-09T01:52:04.770Z,16.64
2023-05-09T01:54:31.080Z,16.46
2023-05-09T01:56:57.385Z,16.15
2023-05-09T01:59:23.667Z,16.04
2023-05-09T02:01:49.960Z,15.95
2023-05-09T02:04:16.277Z,15.59
2023-05-09T02:06:43.445Z,15.62
2023-05-09T02:09:10.039Z,15.55
2023-05-09T02:11:36.331Z,15.57
2023-05-09T02:14:02.707Z,15.57
2023-05-09T02:16:29.964Z,15.51
2023-05-09T02:18:56.294Z,15.43
2023-05-09T02:21:22.584Z,15.27
2023-05-09T02:23:48.861Z,15.32
2023-05-09T02:26:15.172Z,15.26
2023-05-09T02:28:41.567Z,15.15
2023-05-09T02:31:07.847Z,15.01
2023-05-09T02:33:34.859Z,15.07
2023-05-09T02:36:01.652Z,15.00
2023-05-09T02:38:27.937Z,15.05
2023-05-09T02:40:54.225Z,15.18
2023-05-09T02:43:20.927Z,15.32
2023-05-09T02:45:47.296Z,15.52
2023-05-09T02:48:13.732Z,15.69
2023-05-09T02:50:42.793Z,15.76
2023-05-09T02:53:09.603Z,15.51
2023-05-09T02:55:35.957Z,15.41
2023-05-09T02:58:12.910Z,15.39
2023-05-09T03:00:40.839Z,15.23
2023-05-09T03:03:07.197Z,15.20
2023-05-09T03:05:33.526Z,15.08
2023-05-09T03:07:59.812Z,15.09
2023-05-09T03:10:26.111Z,15.07
2023-05-09T03:12:52.486Z,14.82
2023-05-09T03:15:18.809Z,14.96
2023-05-09T03:17:45.207Z,14.96
2023-05-09T03:20:11.560Z,14.98
2023-05-09T03:22:37.859Z,14.73
2023-05-09T03:25:04.287Z,14.59
2023-05-09T03:27:30.613Z,14.51
2023-05-09T03:29:56.954Z,14.44
2023-05-09T03:32:23.355Z,14.37
2023-05-09T03:34:49.655Z,14.31
2023-05-09T03:37:16.012Z,14.43
2023-05-09T03:39:42.328Z,14.51
2023-05-09T03:42:08.602Z,14.61
2023-05-09T03:44:34.890Z,14.61
2023-05-09T03:47:01.222Z,14.68
2023-05-09T03:49:27.787Z,14.69
2023-05-09T03:51:54.127Z,14.86
2023-05-09T03:54:20.613Z,15.08
2023-05-09T03:56:46.924Z,15.09
2023-05-09T03:59:13.363Z,14.83
2023-05-09T04:01:40.305Z,14.79
2023-05-09T04:04:06.766Z,14.63
2023-05-09T04:06:33.498Z,14.58
2023-05-09T04:08:59.789Z,14.50
2023-05-09T04:11:26.908Z,14.50
2023-05-09T04:13:54.050Z,14.37
2023-05-09T04:16:20.440Z,14.28
2023-05-09T04:18:46.823Z,14.23
2023-05-09T04:21:13.109Z,14.41
2023-05-09T04:23:39.406Z,14.52
2023-05-09T04:26:06.161Z,14.83
2023-05-09T04:28:32.504Z,14.92
2023-05-09T04:30:58.861Z,14.93
2023-05-09T04:33:25.219Z,15.26
2023-05-09T04:35:51.736Z,15.35
2023-05-09T04:38:18.031Z,15.23
2023-05-09T04:40:44.325Z,15.08
2023-05-09T04:43:10.622Z,15.07
2023-05-09T04:45:36.970Z,15.03
2023-05-09T04:48:03.999Z,15.09
2023-05-09T04:50:30.403Z,15.00
2023-05-09T04:52:56.685Z,14.90
2023-05-09T04:55:23.034Z,14.83
2023-05-09T04:57:49.336Z,15.00
2023-05-09T05:00:17.600Z,15.18
2023-05-09T05:02:43.937Z,15.36
2023-05-09T05:05:12.448Z,15.60
2023-05-09T05:07:39.104Z,15.68
2023-05-09T05:10:06.382Z,15.75
2023-05-09T05:12:32.658Z,15.80
2023-05-09T05:14:58.965Z,15.38
2023-05-09T05:17:25.642Z,15.30
2023-05-09T05:19:51.955Z,15.37
2023-05-09T05:22:18.289Z,15.35
2023-05-09T05:24:44.574Z,15.33
2023-05-09T05:27:10.887Z,15.50
2023-05-09T05:29:37.185Z,15.67
2023-05-09T05:32:03.664Z,15.84
2023-05-09T05:34:30.002Z,16.08
2023-05-09T05:36:56.384Z,16.30
2023-05-09T05:39:22.796Z,16.17
2023-05-09T05:41:49.088Z,16.11
2023-05-09T05:44:15.401Z,16.16
2023-05-09T05:46:41.691Z,16.34
2023-05-09T05:49:07.987Z,15.90
2023-05-09T05:51:34.310Z,15.86
2023-05-09T05:54:00.683Z,15.75
2023-05-09T05:56:26.997Z,15.79
2023-05-09T05:58:53.943Z,15.67
2023-05-09T06:01:20.338Z,16.01
2023-05-09T06:03:46.786Z,16.13
2023-05-09T06:06:13.238Z,16.19
2023-05-09T06:08:39.534Z,16.86
2023-05-09T06:11:05.924Z,17.40
2023-05-09T06:13:32.275Z,17.57
2023-05-09T06:16:07.861Z,17.31
2023-05-09T06:18:41.855Z,17.29
2023-05-09T06:21:08.137Z,17.11
2023-05-09T06:23:37.020Z,17.06
2023-05-09T06:26:04.315Z,17.67
2023-05-09T06:28:30.674Z,16.99
2023-05-09T06:30:57.071Z,17.10
2023-05-09T06:33:23.427Z,16.87
2023-05-09T06:35:49.735Z,16.64
2023-05-09T06:38:16.016Z,16.45
2023-05-09T06:40:42.409Z,16.67
2023-05-09T06:43:08.692Z,16.48
2023-05-09T06:45:35.210Z,16.48
2023-05-09T06:48:01.693Z,16.77
2023-05-09T06:50:28.023Z,16.48
2023-05-09T06:52:54.305Z,16.20
2023-05-09T06:55:20.628Z,16.49
2023-05-09T06:57:46.920Z,16.45
2023-05-09T07:00:13.679Z,16.43
2023-05-09T07:02:41.983Z,16.29
2023-05-09T07:05:09.696Z,16.39
2023-05-09T07:07:36.297Z,16.12
2023-05-09T07:10:11.202Z,15.89
2023-05-09T07:12:38.533Z,15.84
2023-05-09T07:15:06.253Z,15.76
2023-05-09T07:17:32.556Z,15.90
2023-05-09T07:19:58.938Z,16.11
2023-05-09T07:22:25.442Z,16.31
2023-05-09T07:24:51.841Z,16.02
2023-05-09T07:27:18.128Z,16.11
2023-05-09T07:29:44.401Z,16.37
2023-05-09T07:32:10.996Z,15.89
2023-05-09T07:34:37.382Z,15.99
2023-05-09T07:37:03.760Z,16.19
2023-05-09T07:39:30.258Z,16.27
2023-05-09T07:41:56.554Z,16.05
2023-05-09T07:44:23.521Z,16.39
2023-05-09T07:46:49.876Z,16.28
2023-05-09T07:49:16.248Z,16.21
2023-05-09T07:51:42.570Z,16.81
2023-05-09T07:54:10.047Z,16.48
2023-05-09T07:56:36.469Z,16.71
2023-05-09T07:59:03.314Z,16.72
2023-05-09T08:01:29.622Z,16.88
2023-05-09T08:03:56.152Z,17.41
2023-05-09T08:06:22.561Z,17.57
2023-05-09T08:08:49.243Z,17.62
2023-05-09T08:11:15.663Z,17.83
2023-05-09T08:13:41.936Z,17.91
2023-05-09T08:16:08.347Z,18.01
2023-05-09T08:18:34.662Z,18.13
2023-05-09T08:21:01.094Z,17.49
2023-05-09T08:23:27.899Z,17.12
2023-05-09T08:25:54.543Z,17.14
2023-05-09T08:28:21.955Z,16.78
2023-05-09T08:30:48.304Z,17.07
2023-05-09T08:33:14.633Z,17.26
2023-05-09T08:35:40.940Z,16.92
2023-05-09T08:38:07.293Z,17.08
2023-05-09T08:40:37.698Z,16.90
2023-05-09T08:43:07.195Z,16.87
2023-05-09T08:45:34.830Z,16.58
2023-05-09T08:48:02.838Z,17.13
2023-05-09T08:50:29.199Z,16.72
2023-05-09T08:52:55.507Z,16.70
2023-05-09T08:55:21.791Z,17.11
2023-05-09T08:57:48.071Z,16.88
2023-05-09T09:00:15.876Z,17.14
2023-05-09T09:02:43.610Z,17.07
2023-05-09T09:05:19.677Z,16.93
2023-05-09T09:07:55.251Z,17.06
2023-05-09T09:10:25.556Z,17.51
2023-05-09T09:12:52.293Z,17.30
2023-05-09T09:15:18.575Z,16.97
2023-05-09T09:17:44.900Z,16.91
2023-05-09T09:20:12.209Z,16.97
2023-05-09T09:22:38.586Z,17.42
2023-05-09T09:25:05.061Z,17.37
2023-05-09T09:27:31.740Z,17.53
2023-05-09T09:30:10.991Z,17.60
2023-05-09T09:32:37.732Z,17.99
2023-05-09T09:35:07.546Z,17.82
2023-05-09T09:37:34.717Z,17.70
2023-05-09T09:40:01.116Z,17.59
2023-05-09T09:42:27.397Z,17.66
2023-05-09T09:44:57.215Z,17.89
2023-05-09T09:47:32.622Z,17.95
2023-05-09T09:49:58.971Z,18.01
2023-05-09T09:52:25.244Z,18.43
2023-05-09T09:54:51.528Z,18.44
2023-05-09T09:57:33.403Z,18.43
2023-05-09T09:59:59.689Z,18.50
2023-05-09T10:02:26.711Z,17.93
2023-05-09T10:04:53.038Z,18.02
2023-05-09T10:07:20.587Z,18.16
2023-05-09T10:09:49.116Z,18.26
2023-05-09T10:12:19.482Z,18.66
2023-05-09T10:14:45.780Z,18.85
2023-05-09T10:17:13.479Z,18.36
2023-05-09T10:19:41.459Z,18.26
2023-05-09T10:22:10.905Z,18.69
2023-05-09T10:24:40.098Z,18.64
2023-05-09T10:27:06.881Z,18.43
2023-05-09T10:29:34.651Z,18.50
2023-05-09T10:32:02.569Z,18.79
2023-05-09T10:34:29.098Z,18.35
2023-05-09T10:36:55.566Z,18.54
2023-05-09T10:39:22.021Z,18.60
2023-05-09T10:41:49.793Z,18.81
2023-05-09T10:44:16.539Z,18.85
2023-05-09T10:46:43.015Z,18.69
2023-05-09T10:49:09.779Z,18.77
2023-05-09T10:51:36.158Z,18.62
2023-05-09T10:54:02.443Z,18.60
2023-05-09T10:56:34.340Z,19.02
2023-05-09T10:59:00.760Z,19.30
2023-05-09T11:01:31.486Z,19.27
2023-05-09T11:03:58.512Z,19.38
2023-05-09T11:06:43.892Z,19.13
2023-05-09T11:09:28.853Z,19.15
2023-05-09T11:12:07.172Z,19.05
2023-05-09T11:14:40.745Z,18.95
2023-05-09T11:17:22.539Z,19.05
2023-05-09T11:19:51.611Z,19.21
2023-05-09T11:22:20.859Z,19.00
2023-05-09T11:24:50.795Z,19.21
2023-05-09T11:27:20.576Z,19.47
2023-05-09T11:29:50.950Z,19.24
2023-05-09T11:32:17.342Z,19.78
2023-05-09T11:34:44.014Z,19.56
2023-05-09T11:37:11.109Z,19.61
2023-05-09T11:39:54.837Z,19.98
2023-05-09T11:42:21.233Z,19.60
2023-05-09T11:44:48.793Z,19.84
2023-05-09T11:47:15.500Z,20.03
2023-05-09T11:49:44.660Z,19.89
2023-05-09T11:52:11.146Z,19.54
2023-05-09T11:54:40.330Z,19.88
2023-05-09T11:57:06.807Z,19.89
2023-05-09T11:59:33.461Z,19.82
2023-05-09T12:02:05.907Z,19.52
2023-05-09T12:04:32.301Z,19.71
2023-05-09T12:06:59.291Z,19.06
2023-05-09T12:09:35.182Z,18.77
2023-05-09T12:12:01.502Z,19.19
2023-05-09T12:14:28.545Z,19.33
2023-05-09T12:16:54.842Z,19.62
2023-05-09T12:19:21.228Z,19.51
2023-05-09T12:21:47.511Z,19.87
2023-05-09T12:24:13.813Z,20.16
2023-05-09T12:26:40.099Z,20.30
2023-05-09T12:29:06.392Z,19.93
2023-05-09T12:31:32.934Z,19.72
2023-05-09T12:33:59.263Z,19.43
2023-05-09T12:36:26.280Z,19.86
2023-05-09T12:38:55.477Z,19.75
2023-05-09T12:43:56.521Z,19.72
2023-05-09T12:46:23.112Z,19.69
2023-05-09T12:48:49.570Z,19.65
2023-05-09T12:51:20.139Z,19.02
2023-05-09T12:53:46.473Z,19.40
2023-05-09T12:56:12.769Z,19.31
2023-05-09T12:58:39.480Z,19.29
2023-05-09T13:01:06.029Z,19.33
2023-05-09T13:03:37.745Z,19.37
2023-05-09T13:06:05.408Z,19.50
2023-05-09T13:08:31.691Z,19.65
2023-05-09T13:11:12.011Z,19.43
2023-05-09T13:13:42.426Z,18.52
2023-05-09T13:16:10.719Z,18.31
2023-05-09T13:18:38.403Z,18.24
2023-05-09T13:21:04.694Z,18.04
2023-05-09T13:23:30.960Z,18.20
2023-05-09T13:25:57.248Z,18.93
2023-05-09T13:28:23.537Z,19.06
2023-05-09T13:30:49.857Z,18.83
2023-05-09T13:33:25.334Z,18.14
2023-05-09T13:35:52.479Z,18.53
2023-05-09T13:38:18.811Z,18.18
2023-05-09T13:40:45.100Z,18.75
2023-05-09T13:43:11.475Z,18.54
2023-05-09T13:45:37.808Z,18.81
2023-05-09T13:48:04.319Z,18.44
2023-05-09T13:50:30.636Z,18.26
2023-05-09T13:52:56.996Z,17.62
2023-05-09T13:55:24.222Z,17.72
2023-05-09T13:57:50.941Z,18.04
2023-05-09T14:00:18.061Z,17.97
2023-05-09T14:02:44.576Z,17.78
2023-05-09T14:05:10.880Z,18.04
2023-05-09T14:07:37.236Z,18.02
2023-05-09T14:12:33.974Z,18.35
2023-05-09T14:15:00.285Z,18.38
2023-05-09T14:17:26.782Z,17.73
2023-05-09T14:19:53.108Z,17.32
2023-05-09T14:22:19.495Z,17.76
2023-05-09T14:24:45.877Z,17.74
2023-05-09T14:27:12.182Z,17.60
2023-05-09T14:29:41.121Z,17.24
2023-05-09T14:32:08.029Z,17.27
2023-05-09T14:34:34.421Z,17.13
2023-05-09T14:37:00.719Z,17.32
2023-05-09T14:39:27.015Z,17.91
2023-05-09T14:41:53.306Z,17.97
2023-05-09T14:44:19.602Z,17.91
2023-05-09T14:46:45.935Z,18.26
2023-05-09T14:49:12.256Z,18.49
2023-05-09T14:51:38.630Z,18.77
2023-05-09T14:54:04.948Z,18.79
2023-05-09T14:56:31.255Z,18.78
2023-05-09T14:58:57.541Z,18.60
2023-05-09T15:01:24.137Z,18.62
2023-05-09T15:03:50.562Z,18.08
2023-05-09T15:06:17.152Z,17.41
2023-05-09T15:08:43.433Z,17.27
2023-05-09T15:11:09.729Z,17.01
2023-05-09T15:13:36.227Z,17.40
2023-05-09T15:16:02.682Z,17.22
2023-05-09T15:18:29.000Z,17.17
2023-05-09T15:20:55.700Z,17.58
2023-05-09T15:23:22.682Z,17.58
2023-05-09T15:25:49.110Z,17.07
2023-05-09T15:28:15.631Z,16.69
2023-05-09T15:30:42.129Z,17.34
2023-05-09T15:33:08.533Z,17.74
2023-05-09T15:35:34.853Z,17.51
2023-05-09T15:38:01.134Z,16.97
2023-05-09T15:40:27.940Z,16.87
2023-05-09T15:42:54.222Z,16.63
2023-05-09T15:45:20.631Z,16.80
2023-05-09T15:47:47.167Z,17.09
2023-05-09T15:50:13.740Z,16.82
2023-05-09T15:52:40.227Z,17.19
2023-05-09T15:55:07.065Z,17.28
2023-05-09T15:57:33.482Z,17.49
2023-05-09T15:59:59.853Z,17.31
2023-05-09T16:02:26.346Z,17.66
2023-05-09T16:04:52.844Z,17.56
2023-05-09T16:07:20.380Z,17.76
2023-05-09T16:09:47.226Z,17.84
2023-05-09T16:12:13.741Z,17.59
2023-05-09T16:14:40.112Z,17.90
2023-05-09T16:17:06.445Z,17.59
2023-05-09T16:19:35.031Z,17.09
2023-05-09T16:22:02.182Z,17.01
2023-05-09T16:24:28.465Z,16.48
2023-05-09T16:26:54.743Z,16.44
2023-05-09T16:29:22.306Z,16.49
2023-05-09T16:31:48.664Z,16.46
2023-05-09T16:34:14.969Z,16.33
2023-05-09T16:36:41.351Z,16.40
2023-05-09T16:39:07.642Z,17.00
2023-05-09T16:41:33.942Z,17.37
2023-05-09T16:44:00.288Z,17.27
2023-05-09T16:46:26.723Z,17.01
2023-05-09T16:48:53.077Z,17.10
2023-05-09T16:51:19.405Z,16.70
2023-05-09T16:53:45.694Z,16.54
2023-05-09T16:56:12.231Z,16.98
2023-05-09T16:58:38.741Z,17.21
2023-05-09T17:01:05.484Z,16.90
2023-05-09T17:03:31.863Z,16.95
2023-05-09T17:05:58.161Z,16.88
2023-05-09T17:08:24.456Z,17.18
2023-05-09T17:10:50.802Z,17.23
2023-05-09T17:13:17.317Z,17.21
2023-05-09T17:15:44.260Z,17.36
2023-05-09T17:18:10.801Z,17.04
2023-05-09T17:20:37.740Z,17.29
2023-05-09T17:23:04.053Z,17.36
2023-05-09T17:25:30.571Z,17.33
2023-05-09T17:27:56.925Z,17.66
2023-05-09T17:30:23.618Z,17.79
2023-05-09T17:32:50.145Z,17.04
2023-05-09T17:35:19.244Z,17.27
2023-05-09T17:37:45.558Z,17.07
2023-05-09T17:40:11.945Z,16.80
2023-05-09T17:42:38.562Z,16.86
2023-05-09T17:45:05.072Z,16.89
2023-05-09T17:47:31.527Z,16.60
2023-05-09T17:49:57.870Z,16.59
2023-05-09T17:52:24.180Z,16.56
2023-05-09T17:54:50.586Z,16.59
2023-05-09T17:57:16.897Z,16.53
2023-05-09T17:59:43.241Z,16.30
2023-05-09T18:02:09.527Z,16.36
2023-05-09T18:04:36.015Z,16.00
2023-05-09T18:07:02.584Z,15.97
2023-05-09T18:09:28.898Z,15.72
2023-05-09T18:11:55.220Z,15.83
2023-05-09T18:14:21.541Z,15.60
2023-05-09T18:16:47.855Z,15.45
2023-05-09T18:19:14.112Z,15.75
2023-05-09T18:21:40.426Z,15.72
2023-05-09T18:24:08.990Z,15.59
2023-05-09T18:26:35.292Z,15.83
2023-05-09T18:29:01.625Z,16.17
2023-05-09T18:31:27.930Z,16.27
2023-05-09T18:33:54.295Z,15.83
2023-05-09T18:36:20.568Z,15.48
2023-05-09T18:38:48.141Z,15.83
2023-05-09T18:41:15.626Z,15.95
2023-05-09T18:43:45.803Z,16.00
2023-05-09T18:46:16.974Z,16.27
2023-05-09T18:48:44.174Z,16.55
2023-05-09T18:51:10.590Z,16.73
2023-05-09T18:53:37.791Z,16.46
2023-05-09T18:56:04.475Z,16.44
2023-05-09T18:58:30.963Z,15.77
2023-05-09T19:00:57.370Z,15.52
2023-05-09T19:03:25.101Z,15.51
2023-05-09T19:05:51.378Z,15.59
2023-05-09T19:08:17.691Z,15.13
2023-05-09T19:10:44.580Z,15.38
2023-05-09T19:13:11.550Z,15.40
2023-05-09T19:15:38.658Z,15.29
2023-05-09T19:18:05.005Z,14.96
2023-05-09T19:20:31.488Z,14.58
2023-05-09T19:22:57.938Z,14.41
2023-05-09T19:25:24.644Z,14.82
2023-05-09T19:27:52.539Z,14.52
2023-05-09T19:30:20.255Z,14.70
2023-05-09T19:32:46.611Z,15.24
2023-05-09T19:35:12.963Z,15.10
2023-05-09T19:37:39.276Z,15.13
2023-05-09T19:40:06.243Z,15.47
2023-05-09T19:42:33.114Z,15.86
2023-05-09T19:44:59.565Z,16.17
2023-05-09T19:47:26.005Z,16.37
2023-05-09T19:49:53.453Z,16.45
2023-05-09T19:52:19.827Z,16.62
2023-05-09T19:54:46.129Z,16.61
2023-05-09T19:57:13.153Z,16.54
2023-05-09T19:59:39.431Z,16.70
2023-05-09T20:02:05.798Z,16.69
2023-05-09T20:04:33.106Z,16.83
2023-05-09T20:06:59.387Z,16.76
2023-05-09T20:09:25.726Z,16.78
2023-05-09T20:11:52.001Z,16.43
2023-05-09T20:14:18.707Z,16.51
2023-05-09T20:16:45.042Z,16.56
2023-05-09T20:19:14.465Z,16.57
2023-05-09T20:21:40.777Z,16.49
2023-05-09T20:24:07.470Z,16.61
2023-05-09T20:26:33.761Z,16.67
2023-05-09T20:29:01.469Z,16.79
2023-05-09T20:31:28.498Z,16.69
2023-05-09T20:33:55.485Z,16.32
2023-05-09T20:36:21.796Z,16.10
2023-05-09T20:38:48.111Z,15.99
2023-05-09T20:41:14.405Z,16.03
2023-05-09T20:43:40.691Z,16.21
2023-05-09T20:46:07.327Z,16.03
2023-05-09T20:48:33.648Z,16.13
2023-05-09T20:50:59.910Z,16.25
2023-05-09T20:53:27.553Z,16.21
2023-05-09T20:55:53.920Z,16.09
2023-05-09T20:58:20.329Z,16.28
2023-05-09T21:00:47.017Z,16.20
2023-05-09T21:03:13.611Z,16.08
2023-05-09T21:05:40.356Z,16.26
2023-05-09T21:08:06.637Z,16.47
2023-05-09T21:10:32.905Z,15.95
2023-05-09T21:12:59.260Z,15.51
2023-05-09T21:15:25.589Z,15.74
2023-05-09T21:17:51.918Z,15.55
2023-05-09T21:20:18.477Z,15.15
2023-05-09T21:22:44.916Z,15.24
2023-05-09T21:25:11.281Z,15.35
2023-05-09T21:27:37.579Z,15.30
2023-05-09T21:30:04.247Z,15.50
2023-05-09T21:32:30.579Z,15.47
2023-05-09T21:34:56.975Z,15.56
2023-05-09T21:37:23.260Z,15.78
2023-05-09T21:39:49.560Z,15.83
2023-05-09T21:42:15.922Z,16.00
2023-05-09T21:44:42.208Z,16.13
2023-05-09T21:47:08.673Z,16.17
2023-05-09T21:49:35.114Z,16.19
2023-05-09T21:52:01.413Z,16.08
2023-05-09T21:54:27.721Z,15.96
2023-05-09T21:56:54.045Z,16.07
2023-05-09T21:59:22.115Z,16.03
2023-05-09T22:01:48.707Z,16.26
2023-05-09T22:04:15.256Z,16.30
2023-05-09T22:06:42.485Z,16.35
2023-05-09T22:09:09.022Z,16.43
2023-05-09T22:11:35.338Z,16.45
2023-05-09T22:14:01.865Z,16.32
2023-05-09T22:16:28.646Z,16.34
2023-05-09T22:18:55.073Z,16.03
2023-05-09T22:21:21.359Z,15.92
2023-05-09T22:23:47.649Z,16.07
2023-05-09T22:26:13.919Z,15.94
2023-05-09T22:28:40.267Z,15.79
2023-05-09T22:31:06.786Z,16.02
2023-05-09T22:33:33.331Z,16.19
2023-05-09T22:35:59.610Z,16.27
2023-05-09T22:38:25.933Z,16.08
2023-05-09T22:40:52.244Z,16.27
2023-05-09T22:43:18.514Z,16.32
2023-05-09T22:45:44.936Z,16.39
2023-05-09T22:48:11.345Z,16.26
2023-05-09T22:50:37.679Z,16.36
2023-05-09T22:53:03.963Z,16.19
2023-05-09T22:55:30.350Z,15.92
2023-05-09T22:57:56.688Z,16.04
2023-05-09T23:00:22.979Z,16.21
2023-05-09T23:02:49.376Z,15.99
2023-05-09T23:05:15.786Z,15.99
2023-05-09T23:07:42.339Z,16.01
2023-05-09T23:10:08.608Z,16.13
2023-05-09T23:12:34.893Z,16.05
2023-05-09T23:15:01.233Z,15.69
2023-05-09T23:17:27.589Z,15.50
2023-05-09T23:19:53.968Z,15.65
2023-05-09T23:22:20.265Z,15.66
2023-05-09T23:24:46.564Z,15.35
2023-05-09T23:27:12.841Z,15.75
2023-05-09T23:29:39.111Z,15.50
2023-05-09T23:32:05.401Z,15.77
2023-05-09T23:34:31.778Z,15.90
2023-05-09T23:36:58.120Z,16.00
2023-05-09T23:39:24.425Z,16.04
2023-05-09T23:41:50.712Z,15.73
2023-05-09T23:44:17.058Z,15.49
2023-05-09T23:46:43.402Z,15.50
2023-05-09T23:49:09.690Z,15.47
2023-05-09T23:51:36.227Z,15.58
2023-05-09T23:54:02.504Z,15.55
2023-05-09T23:56:28.807Z,15.56
2023-05-09T23:58:55.545Z,15.46
